Time;durP1;ratioP1;P1;durP2;ratioP2;P2;SDS_P1;SDS_P2;PMS_P1;PMS_P2;Temp;Humidity;BMP_temperature;BMP_pressure;BME280_temperature;BME280_humidity;BME280_pressure;Samples;Min_cycle;Max_cycle;Signal;HPM_P1;HPM_P2
2022/10/07 00:02:10;;;;;;;;;;;;;;;16.18;71.89;101794.69;5408360;32;44869;-72
2022/10/07 00:05:12;;;;;;;;;;;;;;;15.86;72.02;101782.72;5410141;32;34460;-78
2022/10/07 00:08:14;;;;;;;;;;;;;;;16.12;71.91;101785.19;5410241;32;34332;-79
2022/10/07 00:11:23;;;;;;;;;;;;;;;16.30;71.15;101785.38;5410728;32;35318;-79
2022/10/07 00:14:25;;;;;;;;;;;;;;;16.17;70.75;101782.37;5396699;32;37056;-79
2022/10/07 00:17:27;;;;;;;;;;;;;;;16.10;71.02;101784.41;5412134;32;35711;-72
2022/10/07 00:20:29;;;;;;;;;;;;;;;15.46;73.59;101786.84;5420942;32;35151;-78
2022/10/07 00:23:31;;;;;;;;;;;;;;;15.83;72.64;101783.69;5395428;32;34922;-72
2022/10/07 00:26:34;;;;;;;;;;;;;;;15.36;74.47;101786.31;5424270;32;34237;-78
2022/10/07 00:29:36;;;;;;;;;;;;;;;15.01;76.61;101779.66;5392493;32;34928;-77
2022/10/07 00:32:37;;;;;;;;;;;;;;;15.20;76.67;101777.22;5409847;32;35048;-72
2022/10/07 00:35:39;;;;;;;;;;;;;;;14.96;77.74;101786.03;5396132;32;47517;-72
2022/10/07 00:38:41;;;;;;;;;;;;;;;15.33;75.68;101780.28;5411640;32;35128;-72
2022/10/07 00:41:45;;;;;;;;;;;;;;;14.93;76.38;101776.37;5409799;32;36168;-72
2022/10/07 00:44:47;;;;;;;;;;;;;;;16.19;70.98;101765.44;5396439;32;35795;-72
2022/10/07 00:47:50;;;;;;;;;;;;;;;16.33;70.30;101764.88;5398160;32;35163;-78
2022/10/07 00:50:52;;;;;;;;;;;;;;;16.51;69.22;101769.44;5409930;32;34614;-72
2022/10/07 00:53:54;;;;;;;;;;;;;;;16.41;69.30;101777.81;5410085;32;35198;-78
2022/10/07 00:56:58;;;;;;;;;;;;;;;16.16;70.69;101776.16;5397071;32;35815;-80
2022/10/07 01:00:00;;;;;;;;;;;;;;;15.66;72.35;101763.13;5395222;32;35147;-79
2022/10/07 01:03:02;;;;;;;;;;;;;;;16.24;70.31;101766.13;5411563;32;35402;-72
2022/10/07 01:06:04;;;;;;;;;;;;;;;15.28;74.01;101747.78;5397423;32;34650;-72
2022/10/07 01:09:06;;;;;;;;;;;;;;;15.52;73.67;101756.59;5422827;32;36700;-77
2022/10/07 01:12:15;;;;;;;;;;;;;;;15.91;71.57;101759.53;5411307;32;35875;-71
2022/10/07 01:15:18;;;;;;;;;;;;;;;16.02;71.09;101765.25;5408539;32;44696;-79
2022/10/07 01:18:21;;;;;;;;;;;;;;;15.23;73.59;101744.44;5412196;32;35775;-79
2022/10/07 01:21:36;;;;;;;;;;;;;;;15.20;75.04;101757.78;5395282;32;34862;-74
2022/10/07 01:24:49;;;;;;;;;;;;;;;15.51;72.87;101753.06;5424285;32;34253;-78
2022/10/07 01:27:52;;;;;;;;;;;;;;;15.76;72.28;101752.16;5393521;32;34478;-73
2022/10/07 01:30:56;;;;;;;;;;;;;;;15.02;74.94;101761.97;5405885;32;34640;-71
2022/10/07 01:33:58;;;;;;;;;;;;;;;15.57;73.25;101755.50;5410349;32;35812;-72
2022/10/07 01:36:59;;;;;;;;;;;;;;;15.75;72.11;101755.75;5410545;32;35039;-72
2022/10/07 01:40:04;;;;;;;;;;;;;;;15.56;72.87;101756.41;5410363;32;35318;-71
2022/10/07 01:43:06;;;;;;;;;;;;;;;15.09;75.06;101756.41;5396092;32;34169;-78
2022/10/07 01:46:08;;;;;;;;;;;;;;;15.41;73.29;101741.13;5403382;32;34465;-78
2022/10/07 01:49:10;;;;;;;;;;;;;;;14.92;75.26;101756.13;5395218;32;47411;-72
2022/10/07 01:52:15;;;;;;;;;;;;;;;14.89;75.69;101756.25;5409783;32;36092;-73
2022/10/07 01:55:37;;;;;;;;;;;;;;;14.88;76.60;101759.84;5410235;32;36521;-78
2022/10/07 01:58:58;;;;;;;;;;;;;;;15.22;74.24;101751.53;5410267;32;36568;-78
2022/10/07 02:02:06;;;;;;;;;;;;;;;15.40;73.26;101757.94;5418154;32;32699;-77
2022/10/07 02:05:12;;;;;;;;;;;;;;;15.65;71.82;101756.13;5410546;32;34552;-78
2022/10/07 02:08:18;;;;;;;;;;;;;;;15.65;71.95;101745.50;5406233;32;45107;-73
2022/10/07 02:11:24;;;;;;;;;;;;;;;14.36;76.67;101745.69;5398335;32;34869;-78
2022/10/07 02:14:29;;;;;;;;;;;;;;;15.10;74.31;101744.88;5394219;32;34786;-77
2022/10/07 02:17:32;;;;;;;;;;;;;;;15.33;73.49;101745.84;5408946;32;35788;-78
2022/10/07 02:20:35;;;;;;;;;;;;;;;15.13;73.94;101750.09;5391894;32;34637;-72
2022/10/07 02:23:37;;;;;;;;;;;;;;;14.33;77.71;101753.72;5424571;32;34229;-78
2022/10/07 02:26:39;;;;;;;;;;;;;;;14.76;76.49;101758.47;5395120;32;35774;-79
2022/10/07 02:29:41;;;;;;;;;;;;;;;15.49;72.37;101743.47;5398181;32;45960;-73
2022/10/07 02:32:45;;;;;;;;;;;;;;;14.88;74.58;101741.31;5390089;32;35196;-78
2022/10/07 02:35:51;;;;;;;;;;;;;;;14.84;75.17;101737.03;5394994;32;35582;-78
2022/10/07 02:38:55;;;;;;;;;;;;;;;15.26;73.22;101739.88;5421717;32;35095;-77
2022/10/07 02:42:03;;;;;;;;;;;;;;;15.23;72.94;101749.75;5396199;32;35115;-79
2022/10/07 02:45:16;;;;;;;;;;;;;;;15.17;73.14;101748.19;5383435;32;35426;-78
2022/10/07 02:48:22;;;;;;;;;;;;;;;14.83;74.43;101745.87;5388068;32;45247;-71
2022/10/07 02:51:25;;;;;;;;;;;;;;;15.35;72.97;101746.63;5396805;32;34751;-74
2022/10/07 02:54:29;;;;;;;;;;;;;;;15.69;70.73;101740.94;5411129;32;35401;-72
2022/10/07 02:57:42;;;;;;;;;;;;;;;15.62;70.67;101735.03;5395618;32;35333;-78
2022/10/07 03:00:45;;;;;;;;;;;;;;;15.72;70.03;101724.06;5423487;32;44155;-72
2022/10/07 03:03:47;;;;;;;;;;;;;;;15.63;70.39;101730.59;5397943;32;34557;-79
2022/10/07 03:06:49;;;;;;;;;;;;;;;15.41;71.21;101733.16;5419974;32;34309;-79
2022/10/07 03:09:51;;;;;;;;;;;;;;;15.55;71.11;101737.94;5405013;32;35289;-73
2022/10/07 03:12:53;;;;;;;;;;;;;;;16.03;68.87;101736.94;5396757;32;35843;-72
2022/10/07 03:15:55;;;;;;;;;;;;;;;15.80;69.63;101729.94;5425586;32;34290;-72
2022/10/07 03:18:59;;;;;;;;;;;;;;;15.07;72.34;101744.12;5410969;32;35131;-72
2022/10/07 03:22:01;;;;;;;;;;;;;;;15.75;70.26;101743.34;5426380;32;35555;-78
2022/10/07 03:25:04;;;;;;;;;;;;;;;15.91;69.11;101736.53;5411108;32;35006;-72
2022/10/07 03:28:05;;;;;;;;;;;;;;;15.91;69.16;101735.69;5413915;32;34148;-72
2022/10/07 03:31:08;;;;;;;;;;;;;;;15.64;70.24;101734.94;5418204;32;34709;-72
2022/10/07 03:34:11;;;;;;;;;;;;;;;15.31;71.65;101734.41;5409110;32;44766;-71
2022/10/07 03:37:12;;;;;;;;;;;;;;;15.34;71.79;101736.97;5427083;32;34162;-73
2022/10/07 03:40:14;;;;;;;;;;;;;;;15.44;71.26;101733.03;5397295;32;35166;-78
2022/10/07 03:43:17;;;;;;;;;;;;;;;15.65;70.39;101739.34;5425008;32;34831;-72
2022/10/07 03:46:19;;;;;;;;;;;;;;;15.64;69.80;101722.56;5376106;32;34730;-72
2022/10/07 03:49:21;;;;;;;;;;;;;;;15.88;68.90;101730.47;5401285;32;35825;-79
2022/10/07 03:52:22;;;;;;;;;;;;;;;15.69;69.21;101720.59;5421030;32;34524;-79
2022/10/07 03:55:24;;;;;;;;;;;;;;;15.65;69.67;101723.47;5409737;32;35033;-79
2022/10/07 03:58:26;;;;;;;;;;;;;;;15.35;71.08;101722.81;5425104;32;34855;-78
2022/10/07 04:01:30;;;;;;;;;;;;;;;15.11;72.48;101727.22;5411128;32;35408;-72
2022/10/07 04:04:32;;;;;;;;;;;;;;;14.74;74.24;101717.94;5422982;32;34767;-78
2022/10/07 04:07:34;;;;;;;;;;;;;;;15.13;72.26;101723.62;5409844;32;34573;-72
2022/10/07 04:10:36;;;;;;;;;;;;;;;14.41;74.38;101717.28;5398800;32;35418;-72
2022/10/07 04:13:38;;;;;;;;;;;;;;;14.85;74.00;101714.94;5422304;32;34906;-79
2022/10/07 04:16:40;;;;;;;;;;;;;;;15.22;72.25;101718.88;5410887;32;45096;-71
2022/10/07 04:19:42;;;;;;;;;;;;;;;15.54;70.15;101721.19;5424582;32;36464;-78
2022/10/07 04:22:44;;;;;;;;;;;;;;;15.22;71.16;101710.94;5411753;32;35098;-78
2022/10/07 04:25:46;;;;;;;;;;;;;;;14.55;73.84;101717.72;5422709;32;36300;-78
2022/10/07 04:28:48;;;;;;;;;;;;;;;14.96;73.44;101712.75;5405483;32;34580;-73
2022/10/07 04:31:50;;;;;;;;;;;;;;;14.70;74.00;101712.84;5391662;32;34729;-79
2022/10/07 04:34:52;;;;;;;;;;;;;;;14.83;72.92;101711.47;5423555;32;34359;-79
2022/10/07 04:37:54;;;;;;;;;;;;;;;14.46;75.48;101717.16;5411670;32;35580;-79
2022/10/07 04:40:56;;;;;;;;;;;;;;;15.01;72.75;101718.75;5424786;32;35975;-72
2022/10/07 04:43:57;;;;;;;;;;;;;;;15.09;71.94;101708.75;5407170;32;34927;-72
2022/10/07 04:46:59;;;;;;;;;;;;;;;14.95;72.27;101715.47;5406187;32;36251;-77
2022/10/07 04:50:02;;;;;;;;;;;;;;;15.01;72.40;101728.50;5409980;32;34747;-79
2022/10/07 04:53:04;;;;;;;;;;;;;;;15.33;70.17;101724.66;5394373;32;35203;-72
2022/10/07 04:56:07;;;;;;;;;;;;;;;15.54;68.69;101725.63;5410181;32;36565;-72
2022/10/07 04:59:10;;;;;;;;;;;;;;;15.48;68.67;101726.72;5409794;32;34490;-78
2022/10/07 05:02:11;;;;;;;;;;;;;;;15.12;69.91;101719.22;5424620;32;46895;-78
2022/10/07 05:05:13;;;;;;;;;;;;;;;15.05;70.57;101725.66;5408747;32;35602;-72
2022/10/07 05:08:16;;;;;;;;;;;;;;;14.61;72.25;101736.03;5410545;32;35348;-79
2022/10/07 05:11:18;;;;;;;;;;;;;;;14.92;71.87;101729.66;5410761;32;35409;-71
2022/10/07 05:14:20;;;;;;;;;;;;;;;15.15;70.01;101740.28;5396029;32;35106;-79
2022/10/07 05:17:22;;;;;;;;;;;;;;;15.08;70.27;101732.63;5423266;32;35566;-79
2022/10/07 05:20:25;;;;;;;;;;;;;;;14.99;70.56;101749.69;5408554;32;33098;-73
2022/10/07 05:23:29;;;;;;;;;;;;;;;14.89;71.09;101729.78;5405976;32;34838;-72
2022/10/07 05:26:31;;;;;;;;;;;;;;;15.12;69.99;101740.41;5394612;32;34980;-72
2022/10/07 05:29:34;;;;;;;;;;;;;;;14.58;72.67;101744.09;5418777;32;35065;-79
2022/10/07 05:32:35;;;;;;;;;;;;;;;14.90;71.57;101744.75;5410277;32;35110;-72
2022/10/07 05:35:37;;;;;;;;;;;;;;;15.21;70.05;101738.34;5409490;32;34223;-66
2022/10/07 05:38:39;;;;;;;;;;;;;;;15.34;70.00;101744.91;5411075;32;36131;-67
2022/10/07 05:41:41;;;;;;;;;;;;;;;15.79;68.94;101738.81;5395146;32;44830;-80
2022/10/07 05:44:46;;;;;;;;;;;;;;;16.40;66.21;101728.34;5394286;32;34361;-80
2022/10/07 05:47:48;;;;;;;;;;;;;;;16.90;63.77;101731.50;5396333;32;35186;-81
2022/10/07 05:50:50;;;;;;;;;;;;;;;17.27;62.50;101729.88;5414760;32;34248;-76
2022/10/07 05:53:53;;;;;;;;;;;;;;;17.52;62.20;101738.44;5410362;32;35886;-74
2022/10/07 05:56:55;;;;;;;;;;;;;;;18.50;57.64;101728.34;5398037;32;34959;-76
2022/10/07 05:59:57;;;;;;;;;;;;;;;18.64;56.10;101730.31;5409430;32;34596;-74
2022/10/07 06:03:01;;;;;;;;;;;;;;;18.06;58.10;101739.41;5390665;32;34414;-77
2022/10/07 06:06:03;;;;;;;;;;;;;;;19.43;54.68;101735.88;5415029;32;35922;-77
2022/10/07 06:15:49;;;;;;;;;;;;;;;20.79;49.77;101730.75;5415817;32;45060;-72
2022/10/07 06:18:51;;;;;;;;;;;;;;;20.38;50.87;101734.06;5411704;32;34726;-71
2022/10/07 06:21:53;;;;;;;;;;;;;;;20.91;49.32;101734.50;5406898;32;35412;-74
2022/10/07 06:24:57;;;;;;;;;;;;;;;19.15;53.51;101741.87;5414488;32;36128;-69
2022/10/07 06:28:00;;;;;;;;;;;;;;;20.61;50.30;101737.19;5418566;32;35679;-68
2022/10/07 06:31:05;;;;;;;;;;;;;;;20.75;50.20;101731.91;5409506;32;34234;-72
2022/10/07 06:34:07;;;;;;;;;;;;;;;19.84;51.96;101740.78;5409674;32;35832;-76
2022/10/07 06:37:09;;;;;;;;;;;;;;;21.30;49.19;101733.88;5426261;32;35393;-72
2022/10/07 06:40:11;;;;;;;;;;;;;;;20.93;48.79;101733.47;5409531;32;45077;-81
2022/10/07 06:43:13;;;;;;;;;;;;;;;22.09;46.22;101731.44;5426106;32;38459;-73
2022/10/07 06:46:16;;;;;;;;;;;;;;;21.98;46.65;101733.06;5382741;32;34306;-79
2022/10/07 06:49:18;;;;;;;;;;;;;;;22.50;45.26;101721.59;5399094;32;34249;-79
2022/10/07 06:52:20;;;;;;;;;;;;;;;22.76;44.97;101723.31;5399203;32;34327;-75
2022/10/07 06:55:22;;;;;;;;;;;;;;;22.44;46.00;101728.22;5408384;32;34279;-77
2022/10/07 06:58:24;;;;;;;;;;;;;;;22.43;45.60;101730.03;5421825;32;34340;-74
2022/10/07 07:01:26;;;;;;;;;;;;;;;19.81;52.93;101740.94;5397145;32;37160;-74
2022/10/07 07:04:28;;;;;;;;;;;;;;;21.28;49.08;101733.97;5424938;32;34355;-74
2022/10/07 07:07:30;;;;;;;;;;;;;;;22.19;47.64;101725.47;5397233;32;34621;-74
2022/10/07 07:10:35;;;;;;;;;;;;;;;22.88;43.01;101718.97;5422572;32;35396;-77
2022/10/07 07:13:39;;;;;;;;;;;;;;;22.17;46.20;101729.09;5399257;32;37214;-74
2022/10/07 07:16:46;;;;;;;;;;;;;;;22.25;46.53;101722.38;5398887;32;44657;-79
2022/10/07 07:19:48;;;;;;;;;;;;;;;21.77;46.36;101730.00;5409997;32;32848;-77
2022/10/07 07:22:53;;;;;;;;;;;;;;;25.00;39.73;101716.62;5402524;32;34206;-75
2022/10/07 07:25:55;;;;;;;;;;;;;;;22.70;45.04;101716.56;5418413;32;35675;-72
2022/10/07 07:28:58;;;;;;;;;;;;;;;24.71;40.20;101708.13;5390000;32;35696;-73
2022/10/07 07:32:03;;;;;;;;;;;;;;;25.08;38.92;101707.97;5418185;32;35766;-74
2022/10/07 07:35:05;;;;;;;;;;;;;;;23.40;42.68;101712.59;5423526;32;33368;-71
2022/10/07 07:38:07;;;;;;;;;;;;;;;24.10;40.78;101710.12;5397314;32;35755;-75
2022/10/07 07:41:09;;;;;;;;;;;;;;;24.10;40.56;101703.88;5408436;32;35378;-73
2022/10/07 07:44:12;;;;;;;;;;;;;;;24.18;40.29;101710.38;5402642;32;45380;-70
2022/10/07 07:47:17;;;;;;;;;;;;;;;22.77;43.55;101716.16;5390270;32;34250;-79
2022/10/07 07:50:25;;;;;;;;;;;;;;;23.03;43.04;101696.44;5396994;32;31970;-73
2022/10/07 07:53:27;;;;;;;;;;;;;;;20.89;47.93;101717.69;5404693;32;34326;-82
2022/10/07 07:56:32;;;;;;;;;;;;;;;19.48;53.01;101720.50;5424272;32;35808;-78
2022/10/07 07:59:36;;;;;;;;;;;;;;;21.04;48.77;101708.72;5408593;32;34410;-77
2022/10/07 08:02:38;;;;;;;;;;;;;;;19.74;50.95;101711.94;5401931;32;34656;-89
2022/10/07 08:05:40;;;;;;;;;;;;;;;20.19;49.67;101706.72;5402319;32;46343;-74
2022/10/07 08:08:42;;;;;;;;;;;;;;;20.21;50.03;101707.47;5409694;32;35470;-74
2022/10/07 08:11:44;;;;;;;;;;;;;;;20.93;48.30;101701.37;5416177;32;34709;-78
2022/10/07 08:14:46;;;;;;;;;;;;;;;21.06;47.94;101701.50;5405669;32;34240;-70
2022/10/07 08:17:49;;;;;;;;;;;;;;;20.30;50.20;101698.94;5411697;32;34665;-73
2022/10/07 08:20:57;;;;;;;;;;;;;;;21.05;48.58;101694.41;5408317;32;34767;-71
2022/10/07 08:24:01;;;;;;;;;;;;;;;20.55;49.66;101693.03;5422182;32;34176;-73
2022/10/07 08:27:03;;;;;;;;;;;;;;;20.01;51.40;101693.47;5408557;32;34370;-70
2022/10/07 08:30:06;;;;;;;;;;;;;;;19.09;53.79;101700.41;5413066;32;34003;-85
2022/10/07 08:33:08;;;;;;;;;;;;;;;19.54;52.95;101700.63;5415032;32;35913;-74
2022/10/07 08:36:11;;;;;;;;;;;;;;;19.37;53.47;101697.09;5405904;32;43555;-74
2022/10/07 08:39:13;;;;;;;;;;;;;;;19.75;52.66;101688.78;5408662;32;35421;-79
2022/10/07 08:42:21;;;;;;;;;;;;;;;19.44;53.68;101685.13;5407413;32;34307;-70
2022/10/07 08:45:30;;;;;;;;;;;;;;;19.40;53.87;101693.41;5387842;32;34313;-69
2022/10/07 08:48:33;;;;;;;;;;;;;;;20.61;50.59;101679.31;5394749;32;34773;-72
2022/10/07 08:51:38;;;;;;;;;;;;;;;19.51;53.47;101679.47;5398870;32;36120;-73
2022/10/07 08:54:40;;;;;;;;;;;;;;;19.60;53.55;101679.00;5406978;32;44452;-71
2022/10/07 08:58:03;;;;;;;;;;;;;;;19.85;53.39;101671.31;5409337;32;35706;-85
2022/10/07 09:01:14;;;;;;;;;;;;;;;20.13;52.62;101667.03;5421472;32;34419;-73
2022/10/07 09:04:36;;;;;;;;;;;;;;;21.39;48.78;101671.78;5409884;32;44731;-77
2022/10/07 09:07:39;;;;;;;;;;;;;;;21.79;47.56;101658.50;5394294;32;34307;-78
2022/10/07 09:10:43;;;;;;;;;;;;;;;21.07;49.36;101661.28;5399879;32;44606;-76
2022/10/07 09:13:46;;;;;;;;;;;;;;;20.88;49.87;101655.38;5385629;32;814940;-75
2022/10/07 09:16:49;;;;;;;;;;;;;;;20.90;49.81;101649.94;5407639;32;37022;-75
2022/10/07 09:19:58;;;;;;;;;;;;;;;20.78;50.73;101646.19;5394951;32;34223;-69
2022/10/07 09:23:00;;;;;;;;;;;;;;;21.52;48.87;101648.62;5414377;32;34416;-77
2022/10/07 09:26:07;;;;;;;;;;;;;;;21.02;49.97;101644.69;5396004;32;34779;-71
2022/10/07 09:29:09;;;;;;;;;;;;;;;20.63;50.99;101633.81;5383154;32;34292;-73
2022/10/07 09:32:12;;;;;;;;;;;;;;;20.76;51.32;101637.44;5407474;32;44918;-73
2022/10/07 09:35:16;;;;;;;;;;;;;;;20.18;52.51;101632.94;5396481;32;35847;-73
2022/10/07 09:38:31;;;;;;;;;;;;;;;21.40;49.46;101628.03;5421932;32;33813;-72
2022/10/07 09:41:34;;;;;;;;;;;;;;;22.75;46.48;101614.41;5395320;32;34668;-71
2022/10/07 09:44:38;;;;;;;;;;;;;;;23.58;44.32;101605.75;5399236;32;34362;-79
2022/10/07 09:47:40;;;;;;;;;;;;;;;26.16;39.02;101593.16;5396013;32;45179;-72
2022/10/07 09:50:43;;;;;;;;;;;;;;;27.38;36.76;101597.69;5403542;32;34448;-72
2022/10/07 09:53:56;;;;;;;;;;;;;;;28.14;34.21;101582.47;5406615;32;35865;-75
2022/10/07 09:56:59;;;;;;;;;;;;;;;30.15;30.72;101572.53;5394014;32;35538;-75
2022/10/07 10:00:12;;;;;;;;;;;;;;;31.13;28.97;101569.44;5419984;32;34496;-72
2022/10/07 10:03:14;;;;;;;;;;;;;;;33.64;25.28;101550.03;5414372;32;44611;-83
2022/10/07 10:06:17;;;;;;;;;;;;;;;32.83;25.55;101554.91;5382681;32;35477;-72
2022/10/07 10:09:21;;;;;;;;;;;;;;;33.44;25.17;101551.56;5414361;32;34533;-85
2022/10/07 10:12:23;;;;;;;;;;;;;;;32.49;26.24;101538.91;5396907;32;34911;-80
2022/10/07 10:15:34;;;;;;;;;;;;;;;32.53;26.23;101537.53;5419466;32;34279;-80
2022/10/07 10:18:37;;;;;;;;;;;;;;;32.45;26.37;101545.69;5409881;32;34985;-77
2022/10/07 10:21:39;;;;;;;;;;;;;;;33.02;25.06;101545.47;5402289;32;34567;-80
2022/10/07 10:28:05;;;;;;;;;;;;;;;32.31;25.47;101536.38;5397858;32;34369;-77
2022/10/07 10:31:08;;;;;;;;;;;;;;;28.57;31.20;101538.69;5425055;32;35902;-74
2022/10/07 10:34:27;;;;;;;;;;;;;;;30.24;29.17;101527.31;5396234;32;44539;-72
2022/10/07 10:37:32;;;;;;;;;;;;;;;29.91;29.49;101520.81;5400240;32;35528;-78
2022/10/07 10:40:39;;;;;;;;;;;;;;;29.60;30.03;101520.41;5416830;32;35289;-72
2022/10/07 10:43:56;;;;;;;;;;;;;;;29.52;30.17;101518.47;5396747;32;44589;-72
2022/10/07 10:47:17;;;;;;;;;;;;;;;26.06;36.19;101522.19;5403523;32;36378;-84
2022/10/07 10:50:26;;;;;;;;;;;;;;;26.25;35.51;101526.81;5414579;32;34744;-84
2022/10/07 10:53:33;;;;;;;;;;;;;;;25.61;37.03;101514.34;5400192;32;34273;-69
2022/10/07 10:56:52;;;;;;;;;;;;;;;24.25;39.31;101515.53;5413969;32;34173;-70
2022/10/07 10:59:58;;;;;;;;;;;;;;;24.40;39.76;101505.44;5385603;32;34452;-74
2022/10/07 11:03:03;;;;;;;;;;;;;;;25.29;37.86;101496.38;5408436;32;37460;-75
2022/10/07 11:06:06;;;;;;;;;;;;;;;25.64;37.25;101498.78;5413930;32;34217;-76
2022/10/07 11:09:15;;;;;;;;;;;;;;;25.06;38.37;101489.38;5400628;32;35270;-72
2022/10/07 11:12:22;;;;;;;;;;;;;;;23.67;41.50;101481.63;5410436;32;44830;-68
2022/10/07 11:15:26;;;;;;;;;;;;;;;24.37;40.26;101475.28;5413280;32;34988;-82
2022/10/07 11:18:28;;;;;;;;;;;;;;;25.11;38.72;101471.00;5398539;32;34662;-75
2022/10/07 11:21:34;;;;;;;;;;;;;;;24.47;39.79;101471.75;5415747;32;34365;-78
2022/10/07 11:24:49;;;;;;;;;;;;;;;23.21;42.09;101459.12;5420792;32;35342;-72
2022/10/07 11:27:52;;;;;;;;;;;;;;;24.15;40.83;101460.84;5401261;32;33666;-78
2022/10/07 11:31:04;;;;;;;;;;;;;;;24.22;40.81;101450.47;5408526;32;35682;-77
2022/10/07 11:34:16;;;;;;;;;;;;;;;25.51;38.06;101438.06;5419481;32;35413;-72
2022/10/07 11:37:20;;;;;;;;;;;;;;;25.49;37.75;101440.00;5393751;32;44026;-71
2022/10/07 11:40:22;;;;;;;;;;;;;;;25.70;36.94;101432.81;5421537;32;34443;-71
2022/10/07 11:43:32;;;;;;;;;;;;;;;25.73;36.87;101429.00;5406004;32;34513;-78
2022/10/07 11:46:35;;;;;;;;;;;;;;;25.32;37.68;101420.78;5390091;32;35439;-73
2022/10/07 11:49:42;;;;;;;;;;;;;;;23.94;40.73;101435.66;5405973;32;36913;-72
2022/10/07 11:52:47;;;;;;;;;;;;;;;24.78;38.50;101416.31;5395336;32;46061;-71
2022/10/07 11:56:11;;;;;;;;;;;;;;;24.69;38.83;101406.34;5422927;32;35420;-78
2022/10/07 11:59:43;;;;;;;;;;;;;;;24.38;39.31;101407.13;5391159;32;44571;-71
2022/10/07 12:02:45;;;;;;;;;;;;;;;23.64;41.14;101402.22;5350999;32;44825;-72
2022/10/07 12:05:48;;;;;;;;;;;;;;;23.62;41.40;101404.16;5407598;32;35208;-72
2022/10/07 12:08:50;;;;;;;;;;;;;;;24.82;38.86;101390.91;5409221;32;34788;-81
2022/10/07 12:11:52;;;;;;;;;;;;;;;24.98;38.79;101384.22;5426802;32;34533;-72
2022/10/07 12:15:01;;;;;;;;;;;;;;;24.05;40.30;101385.53;5393491;32;36949;-80
2022/10/07 12:18:03;;;;;;;;;;;;;;;23.89;40.20;101385.00;5415495;32;35345;-72
2022/10/07 12:21:05;;;;;;;;;;;;;;;24.02;40.12;101379.53;5422543;32;34997;-72
2022/10/07 12:24:13;;;;;;;;;;;;;;;24.16;40.36;101368.56;5396991;32;34200;-72
2022/10/07 12:27:16;;;;;;;;;;;;;;;24.04;40.35;101364.16;5403508;32;45206;-74
2022/10/07 12:30:38;;;;;;;;;;;;;;;24.76;39.03;101352.91;5389609;32;34371;-81
2022/10/07 12:33:43;;;;;;;;;;;;;;;24.38;39.86;101358.78;5422706;32;43853;-81
2022/10/07 12:36:45;;;;;;;;;;;;;;;25.41;37.89;101357.25;5399769;32;34895;-79
2022/10/07 12:39:47;;;;;;;;;;;;;;;24.84;39.30;101348.59;5386891;32;34652;-80
2022/10/07 12:43:09;;;;;;;;;;;;;;;25.59;37.65;101349.41;5424292;32;35048;-73
2022/10/07 12:46:13;;;;;;;;;;;;;;;25.79;37.33;101339.63;5361489;32;44791;-79
2022/10/07 12:49:37;;;;;;;;;;;;;;;23.61;41.44;101348.78;5420841;32;35269;-72
2022/10/07 12:52:46;;;;;;;;;;;;;;;23.73;41.63;101345.13;5412874;32;35429;-72
2022/10/07 12:55:50;;;;;;;;;;;;;;;25.13;38.57;101326.50;5391479;32;44504;-72
2022/10/07 13:02:47;;;;;;;;;;;;;;;25.51;37.84;101330.41;5388917;32;36177;-75
2022/10/07 13:05:56;;;;;;;;;;;;;;;25.35;38.53;101325.47;5369258;32;37102;-73
2022/10/07 13:09:04;;;;;;;;;;;;;;;25.91;37.26;101323.22;5416965;32;36106;-72
2022/10/07 13:12:15;;;;;;;;;;;;;;;25.98;36.99;101306.53;5403343;32;37182;-73
2022/10/07 13:15:22;;;;;;;;;;;;;;;26.28;36.28;101302.91;5415205;32;45384;-74
2022/10/07 13:18:40;;;;;;;;;;;;;;;26.93;34.94;101301.41;5404712;32;35161;-80
2022/10/07 13:21:50;;;;;;;;;;;;;;;27.85;33.71;101295.34;5409351;32;44794;-71
2022/10/07 13:24:56;;;;;;;;;;;;;;;30.88;28.84;101278.13;5414546;32;35811;-73
2022/10/07 13:27:58;;;;;;;;;;;;;;;34.15;24.24;101270.13;5397103;32;35499;-73
2022/10/07 13:31:10;;;;;;;;;;;;;;;34.75;23.35;101268.00;5412741;32;34782;-72
2022/10/07 13:34:16;;;;;;;;;;;;;;;34.62;23.02;101256.97;5390363;32;44778;-73
2022/10/07 13:37:31;;;;;;;;;;;;;;;35.62;21.90;101258.53;5401918;32;35198;-81
2022/10/07 13:40:34;;;;;;;;;;;;;;;34.44;22.93;101249.25;5402197;32;35541;-81
2022/10/07 13:43:37;;;;;;;;;;;;;;;33.63;23.95;101254.81;5405832;32;35335;-72
2022/10/07 13:46:41;;;;;;;;;;;;;;;30.22;29.08;101251.97;5400648;32;34932;-80
2022/10/07 13:49:43;;;;;;;;;;;;;;;29.43;29.94;101264.81;5402658;32;44661;-73
2022/10/07 13:52:47;;;;;;;;;;;;;;;27.47;33.45;101260.22;5406149;32;34824;-80
2022/10/07 13:55:49;;;;;;;;;;;;;;;27.87;32.83;101264.47;5389490;32;34654;-82
2022/10/07 13:58:53;;;;;;;;;;;;;;;27.06;34.34;101257.97;5407217;32;34790;-81
2022/10/07 14:01:59;;;;;;;;;;;;;;;25.61;37.25;101254.06;5418630;32;35528;-72
2022/10/07 14:05:04;;;;;;;;;;;;;;;26.07;36.58;101252.66;5402643;32;34969;-74
2022/10/07 14:08:12;;;;;;;;;;;;;;;24.99;38.40;101251.47;5416563;32;36272;-80
2022/10/07 14:11:15;;;;;;;;;;;;;;;24.34;39.70;101244.47;5388284;32;44665;-73
2022/10/07 14:14:18;;;;;;;;;;;;;;;23.54;41.44;101242.88;5404924;32;35047;-80
2022/10/07 14:17:26;;;;;;;;;;;;;;;23.63;41.66;101233.25;5408516;32;34784;-81
2022/10/07 14:20:30;;;;;;;;;;;;;;;23.38;42.29;101239.69;5408401;32;35617;-80
2022/10/07 14:23:33;;;;;;;;;;;;;;;24.03;40.93;101231.75;5408208;32;34913;-72
2022/10/07 14:26:40;;;;;;;;;;;;;;;24.81;39.01;101232.41;5392367;32;35360;-81
2022/10/07 14:29:42;;;;;;;;;;;;;;;24.19;40.58;101228.62;5405160;32;44974;-81
2022/10/07 14:36:07;;;;;;;;;;;;;;;23.64;40.62;101232.31;5396957;32;35412;-73
2022/10/07 14:39:22;;;;;;;;;;;;;;;23.42;41.08;101228.62;5423244;32;45319;-79
2022/10/07 14:42:28;;;;;;;;;;;;;;;22.90;42.67;101235.41;5383077;32;34979;-73
2022/10/07 14:45:30;;;;;;;;;;;;;;;24.18;39.89;101223.37;5392987;32;35772;-78
2022/10/07 14:48:32;;;;;;;;;;;;;;;24.28;39.87;101221.62;5407389;32;36647;-72
2022/10/07 14:51:34;;;;;;;;;;;;;;;23.59;41.71;101219.22;5423268;32;34781;-72
2022/10/07 14:54:36;;;;;;;;;;;;;;;24.17;40.46;101217.16;5400112;32;35260;-72
2022/10/07 14:57:38;;;;;;;;;;;;;;;24.21;40.32;101210.53;5410975;32;36210;-78
2022/10/07 15:00:40;;;;;;;;;;;;;;;23.61;41.86;101213.72;5412973;32;44992;-72
2022/10/07 15:03:42;;;;;;;;;;;;;;;23.21;43.04;101215.09;5406799;32;34262;-72
2022/10/07 15:06:44;;;;;;;;;;;;;;;23.83;41.57;101207.47;5427353;32;34658;-80
2022/10/07 15:09:51;;;;;;;;;;;;;;;23.77;41.83;101209.72;5395211;32;35069;-71
2022/10/07 15:12:53;;;;;;;;;;;;;;;23.65;42.18;101205.34;5419382;32;35360;-72
2022/10/07 15:15:55;;;;;;;;;;;;;;;23.69;42.11;101208.62;5418680;32;35090;-71
2022/10/07 15:18:57;;;;;;;;;;;;;;;23.67;41.75;101202.53;5409149;32;34833;-79
2022/10/07 15:22:00;;;;;;;;;;;;;;;22.84;43.47;101211.72;5426962;32;34659;-72
2022/10/07 15:25:04;;;;;;;;;;;;;;;23.48;42.39;101203.97;5409626;32;34978;-72
2022/10/07 15:28:06;;;;;;;;;;;;;;;23.58;42.43;101197.88;5424444;32;35204;-80
2022/10/07 15:31:09;;;;;;;;;;;;;;;23.40;42.98;101200.22;5408599;32;34779;-79
2022/10/07 15:34:10;;;;;;;;;;;;;;;23.21;43.57;101190.94;5415128;32;44734;-72
2022/10/07 15:37:13;;;;;;;;;;;;;;;23.35;43.35;101191.69;5406364;32;36640;-79
2022/10/07 15:40:15;;;;;;;;;;;;;;;22.93;44.41;101203.00;5409530;32;35001;-80
2022/10/07 15:43:17;;;;;;;;;;;;;;;22.92;44.53;101197.75;5425700;32;35549;-74
2022/10/07 15:46:19;;;;;;;;;;;;;;;23.36;43.69;101204.97;5388701;32;35716;-73
2022/10/07 15:49:21;;;;;;;;;;;;;;;23.02;44.65;101205.94;5424291;32;34917;-72
2022/10/07 15:52:22;;;;;;;;;;;;;;;23.30;43.97;101200.09;5410895;32;34732;-73
2022/10/07 15:55:25;;;;;;;;;;;;;;;22.59;45.97;101203.84;5415957;32;35835;-80
2022/10/07 15:58:27;;;;;;;;;;;;;;;23.14;44.52;101195.09;5420655;32;35515;-78
2022/10/07 16:01:32;;;;;;;;;;;;;;;23.11;44.69;101189.13;5410175;32;35441;-81
2022/10/07 16:04:34;;;;;;;;;;;;;;;22.98;44.89;101195.44;5424262;32;34704;-80